Time;durP1;ratioP1;P1;durP2;ratioP2;P2;SDS_P1;SDS_P2;PMS_P1;PMS_P2;Temp;Humidity;BMP_temperature;BMP_pressure;BME280_temperature;BME280_humidity;BME280_pressure;Samples;Min_cycle;Max_cycle;Signal;HPM_P1;HPM_P2
2021/10/02 00:37:49;;;;;;;0.50;0.50;;;13.20;99.90;;;;;;5016083;28;20805;-86
2021/10/02 00:45:46;;;;;;;0.43;0.43;;;13.20;99.90;;;;;;5016599;28;20403;-86
2021/10/02 00:48:14;;;;;;;1.03;0.60;;;13.20;99.90;;;;;;5016864;28;20483;-86
2021/10/02 00:50:40;;;;;;;1.40;1.30;;;13.20;99.90;;;;;;5015202;28;20472;-86
2021/10/02 00:53:08;;;;;;;1.60;0.60;;;13.20;99.90;;;;;;5015964;28;20440;-86
2021/10/02 00:55:34;;;;;;;1.73;0.60;;;13.20;99.90;;;;;;5016263;28;20447;-86
2021/10/02 00:58:01;;;;;;;0.70;0.67;;;13.20;99.90;;;;;;5016052;28;20452;-86
2021/10/02 01:00:28;;;;;;;0.43;0.40;;;13.20;99.90;;;;;;5016113;28;20838;-86
2021/10/02 01:03:04;;;;;;;0.70;0.50;;;13.20;99.90;;;;;;5016179;28;20451;-86
2021/10/02 01:05:57;;;;;;;1.80;0.60;;;13.20;99.90;;;;;;5016133;28;20438;-86
2021/10/02 01:08:35;;;;;;;1.10;1.10;;;13.20;99.90;;;;;;5016044;28;20470;-86
2021/10/02 01:11:21;;;;;;;0.90;0.80;;;13.20;99.90;;;;;;5016159;28;20816;-86
2021/10/02 01:13:55;;;;;;;0.40;0.40;;;13.20;99.90;;;;;;5014731;28;20464;-86
2021/10/02 01:16:26;;;;;;;1.10;1.10;;;13.30;99.90;;;;;;5015921;28;20427;-86
2021/10/02 01:19:00;;;;;;;1.03;0.93;;;13.30;99.90;;;;;;5015458;28;20454;-86
2021/10/02 01:21:52;;;;;;;1.03;1.03;;;13.30;99.90;;;;;;5015567;28;20467;-86
2021/10/02 01:24:30;;;;;;;0.60;0.60;;;13.30;99.90;;;;;;5015760;28;20443;-86
2021/10/02 01:27:17;;;;;;;0.90;0.80;;;13.30;99.90;;;;;;5015679;28;20436;-86
2021/10/02 01:29:47;;;;;;;0.63;0.57;;;13.30;99.90;;;;;;5015398;28;20481;-86
2021/10/02 01:32:19;;;;;;;1.07;0.97;;;13.30;99.90;;;;;;5015335;28;20768;-86
2021/10/02 01:34:59;;;;;;;0.50;0.40;;;13.30;99.90;;;;;;5015306;28;20535;-86
2021/10/02 01:37:41;;;;;;;2.53;0.60;;;13.30;99.90;;;;;;5015458;28;20802;-86
2021/10/02 01:48:27;;;;;;;0.60;0.40;;;13.30;99.90;;;;;;5014932;28;20455;-87
2021/10/02 01:50:56;;;;;;;1.43;1.13;;;13.30;99.90;;;;;;5015080;28;20510;-86
2021/10/02 01:53:26;;;;;;;0.60;0.50;;;13.30;99.90;;;;;;5015276;28;20448;-86
2021/10/02 01:55:56;;;;;;;0.80;0.60;;;13.30;99.90;;;;;;5015216;28;20432;-86
2021/10/02 01:58:24;;;;;;;1.93;0.70;;;13.30;99.90;;;;;;5015213;28;20927;-86
2021/10/02 02:00:52;;;;;;;3.80;1.07;;;13.30;99.90;;;;;;5015084;28;20474;-86
2021/10/02 02:03:23;;;;;;;0.50;0.50;;;13.40;99.90;;;;;;5014078;28;20444;-86
2021/10/02 02:05:51;;;;;;;0.70;0.70;;;13.40;99.90;;;;;;5014945;28;20455;-86
2021/10/02 02:08:21;;;;;;;1.10;0.47;;;13.40;99.90;;;;;;5014539;28;20443;-86
2021/10/02 02:10:48;;;;;;;1.07;0.60;;;13.50;99.90;;;;;;5014646;28;20475;-83
2021/10/02 02:13:17;;;;;;;1.03;0.60;;;13.40;99.90;;;;;;5014393;28;20447;-84
2021/10/02 02:15:46;;;;;;;1.33;0.60;;;13.40;99.90;;;;;;5014414;28;20455;-84
2021/10/02 02:18:17;;;;;;;2.80;0.70;;;13.40;99.90;;;;;;5014387;28;20448;-84
2021/10/02 02:20:47;;;;;;;0.50;0.50;;;13.40;99.90;;;;;;5014238;28;20472;-84
2021/10/02 02:23:15;;;;;;;1.23;0.60;;;13.40;99.90;;;;;;5014073;28;20946;-84
2021/10/02 02:25:43;;;;;;;1.17;0.90;;;13.40;99.90;;;;;;5014227;28;20506;-84
2021/10/02 02:28:10;;;;;;;1.83;0.77;;;13.40;99.90;;;;;;5014148;28;20440;-84
2021/10/02 02:30:38;;;;;;;1.33;0.73;;;13.40;99.90;;;;;;5013714;28;20494;-84
2021/10/02 02:33:05;;;;;;;3.70;1.33;;;13.40;99.90;;;;;;5014121;28;20459;-84
2021/10/02 02:35:34;;;;;;;0.50;0.50;;;13.40;99.90;;;;;;5013670;28;20986;-84
2021/10/02 02:38:01;;;;;;;1.17;0.53;;;13.40;99.90;;;;;;5013898;28;20455;-84
2021/10/02 02:40:28;;;;;;;0.90;0.90;;;13.40;99.90;;;;;;5013955;28;20471;-84
2021/10/02 02:42:56;;;;;;;1.00;0.50;;;13.40;99.90;;;;;;5014093;28;20458;-84
2021/10/02 02:45:23;;;;;;;0.70;0.53;;;13.40;99.90;;;;;;5013667;28;20946;-84
2021/10/02 02:47:54;;;;;;;1.33;1.33;;;13.40;99.90;;;;;;5013987;28;20446;-84
2021/10/02 02:50:27;;;;;;;2.97;1.30;;;13.50;99.90;;;;;;5013769;28;20495;-84
2021/10/02 02:53:02;;;;;;;0.80;0.63;;;13.40;99.90;;;;;;5013705;28;20412;-84
2021/10/02 02:55:34;;;;;;;0.77;0.60;;;13.40;99.90;;;;;;5013642;28;20786;-84
2021/10/02 02:58:05;;;;;;;7.73;2.47;;;13.40;99.90;;;;;;5014011;28;20443;-84
2021/10/02 03:00:36;;;;;;;1.47;0.50;;;13.40;99.90;;;;;;5013707;28;20467;-84
2021/10/02 03:03:06;;;;;;;1.53;0.50;;;13.40;99.90;;;;;;5013965;28;20531;-84
2021/10/02 03:05:35;;;;;;;0.80;0.50;;;13.40;99.90;;;;;;5013848;28;20440;-84
2021/10/02 03:08:07;;;;;;;0.60;0.57;;;13.40;99.90;;;;;;5013715;28;20451;-84
2021/10/02 03:10:36;;;;;;;2.30;0.73;;;13.40;99.90;;;;;;5013590;28;20483;-84
2021/10/02 03:13:06;;;;;;;2.50;1.03;;;13.40;99.90;;;;;;5013356;28;20440;-84
2021/10/02 03:15:36;;;;;;;0.60;0.50;;;13.40;99.90;;;;;;5017130;28;20440;-84
2021/10/02 03:18:03;;;;;;;0.73;0.43;;;13.40;99.90;;;;;;5017718;28;20439;-84
2021/10/02 03:20:31;;;;;;;1.27;0.60;;;13.40;99.90;;;;;;5017276;28;20474;-84
2021/10/02 03:22:58;;;;;;;0.87;0.87;;;13.40;99.90;;;;;;5018370;28;20447;-84
2021/10/02 03:25:27;;;;;;;1.47;0.50;;;13.40;99.90;;;;;;5017602;28;20454;-84
2021/10/02 03:27:55;;;;;;;0.50;0.43;;;13.40;99.90;;;;;;5017348;28;20957;-84
2021/10/02 03:30:21;;;;;;;0.50;0.50;;;13.40;99.90;;;;;;5017374;28;20487;-84
2021/10/02 03:32:50;;;;;;;0.83;0.57;;;13.40;99.90;;;;;;5017523;28;20459;-84
2021/10/02 03:35:18;;;;;;;0.77;0.50;;;13.40;99.90;;;;;;5017004;28;20475;-84
2021/10/02 03:37:47;;;;;;;0.40;0.40;;;13.40;99.90;;;;;;5017730;28;20867;-87
2021/10/02 03:40:14;;;;;;;0.90;0.80;;;13.30;99.90;;;;;;5017373;28;20974;-86
2021/10/02 03:42:46;;;;;;;1.03;0.70;;;13.30;99.90;;;;;;5017432;28;20443;-87
2021/10/02 03:45:13;;;;;;;0.50;0.47;;;13.30;99.90;;;;;;5017783;28;20824;-87
2021/10/02 03:47:40;;;;;;;0.67;0.60;;;13.30;99.90;;;;;;5017248;28;20973;-87
2021/10/02 03:50:08;;;;;;;1.00;0.40;;;13.30;99.90;;;;;;5017419;28;20866;-86
2021/10/02 03:52:35;;;;;;;0.60;0.40;;;13.30;99.90;;;;;;5017686;28;20535;-87
2021/10/02 03:55:03;;;;;;;0.50;0.40;;;13.40;99.90;;;;;;5017385;28;20466;-86
2021/10/02 03:57:30;;;;;;;3.53;0.80;;;13.30;99.90;;;;;;5017364;28;20455;-87
2021/10/02 03:59:58;;;;;;;0.60;0.60;;;13.30;99.90;;;;;;5017063;28;20463;-87
2021/10/02 04:02:25;;;;;;;0.50;0.50;;;13.30;99.90;;;;;;5017366;28;20439;-87
2021/10/02 04:04:52;;;;;;;0.60;0.60;;;13.30;99.90;;;;;;5016888;28;20443;-86
2021/10/02 04:07:19;;;;;;;0.70;0.70;;;13.30;99.90;;;;;;5016981;28;20435;-86
2021/10/02 04:09:46;;;;;;;0.53;0.53;;;13.30;99.90;;;;;;5017002;28;20475;-87
2021/10/02 04:12:13;;;;;;;0.67;0.50;;;13.30;99.90;;;;;;5017076;28;20458;-87
2021/10/02 04:14:39;;;;;;;0.50;0.50;;;13.30;99.90;;;;;;5017170;28;20431;-87
2021/10/02 04:17:08;;;;;;;0.50;0.50;;;13.30;99.90;;;;;;5016974;28;20454;-86
2021/10/02 04:19:34;;;;;;;1.07;0.90;;;13.20;99.90;;;;;;5016662;28;20439;-87
2021/10/02 04:22:01;;;;;;;1.47;0.77;;;13.20;99.90;;;;;;5016593;28;20436;-86
2021/10/02 04:24:28;;;;;;;0.50;0.40;;;13.20;99.90;;;;;;5016907;28;20458;-86
2021/10/02 04:26:58;;;;;;;0.43;0.43;;;13.20;99.90;;;;;;5015531;28;20444;-87
2021/10/02 04:29:25;;;;;;;6.90;1.03;;;13.20;99.90;;;;;;5016875;28;20506;-86
2021/10/02 04:31:52;;;;;;;0.70;0.60;;;13.10;99.90;;;;;;5016434;28;20932;-87
2021/10/02 04:34:20;;;;;;;0.80;0.70;;;13.10;99.90;;;;;;5016305;28;20487;-86
2021/10/02 04:36:47;;;;;;;0.93;0.93;;;13.10;99.90;;;;;;5016805;28;20452;-86
2021/10/02 04:39:14;;;;;;;0.50;0.50;;;13.10;99.90;;;;;;5016349;28;20919;-86
2021/10/02 04:41:40;;;;;;;0.53;0.50;;;13.20;99.90;;;;;;5016462;28;20471;-87
2021/10/02 04:44:07;;;;;;;0.50;0.50;;;13.20;99.90;;;;;;5016282;28;20454;-86
2021/10/02 04:46:34;;;;;;;0.50;0.50;;;13.20;99.90;;;;;;5016432;28;20447;-86
2021/10/02 04:49:01;;;;;;;0.53;0.50;;;13.20;99.90;;;;;;5016281;28;20474;-86
2021/10/02 04:51:30;;;;;;;0.50;0.40;;;13.20;99.90;;;;;;5015874;28;20805;-83
2021/10/02 04:53:56;;;;;;;1.80;0.80;;;13.20;99.90;;;;;;5015868;28;20451;-83
2021/10/02 04:56:23;;;;;;;0.60;0.50;;;13.20;99.90;;;;;;5015793;28;20444;-83
2021/10/02 04:58:50;;;;;;;1.10;0.50;;;13.20;99.90;;;;;;5015475;28;20444;-83
2021/10/02 05:01:17;;;;;;;0.40;0.30;;;13.20;99.90;;;;;;5015339;28;20842;-83
2021/10/02 05:03:43;;;;;;;0.70;0.60;;;13.20;99.90;;;;;;5015707;28;20443;-83
2021/10/02 05:06:10;;;;;;;1.70;0.50;;;13.20;99.90;;;;;;5015652;28;20448;-83
2021/10/02 05:08:38;;;;;;;0.53;0.40;;;13.20;99.90;;;;;;5015356;28;20432;-83
2021/10/02 05:11:06;;;;;;;1.03;0.93;;;13.10;99.90;;;;;;5015114;28;20487;-83
2021/10/02 05:13:34;;;;;;;1.13;0.57;;;13.10;99.90;;;;;;5015255;28;20428;-83
2021/10/02 05:16:01;;;;;;;0.70;0.60;;;13.20;99.90;;;;;;5015096;28;20444;-83
2021/10/02 05:18:28;;;;;;;0.50;0.50;;;13.20;99.90;;;;;;5015138;28;20439;-83
2021/10/02 05:20:55;;;;;;;0.60;0.60;;;13.20;99.90;;;;;;5015041;28;20974;-83
2021/10/02 05:23:22;;;;;;;1.43;0.50;;;13.20;99.90;;;;;;5014995;28;20829;-83
2021/10/02 05:25:50;;;;;;;2.67;0.57;;;13.20;99.90;;;;;;5014993;28;20531;-83
2021/10/02 05:28:17;;;;;;;0.50;0.50;;;13.20;99.90;;;;;;5014884;28;20448;-83
2021/10/02 05:30:43;;;;;;;1.03;0.53;;;13.20;99.90;;;;;;5014751;28;20483;-83
2021/10/02 05:33:10;;;;;;;2.13;0.83;;;13.20;99.90;;;;;;5014944;28;20447;-83
2021/10/02 05:35:37;;;;;;;2.20;1.20;;;13.20;99.90;;;;;;5014658;28;20482;-83
2021/10/02 05:38:04;;;;;;;1.03;0.93;;;13.20;99.90;;;;;;5014539;28;21017;-85
2021/10/02 05:40:31;;;;;;;0.80;0.50;;;13.20;99.90;;;;;;5015254;28;20464;-86
2021/10/02 05:43:02;;;;;;;1.03;0.50;;;13.30;99.90;;;;;;5015241;28;20476;-86
2021/10/02 05:45:28;;;;;;;1.63;1.13;;;13.30;99.90;;;;;;5015195;28;20804;-84
2021/10/02 05:47:55;;;;;;;1.43;0.90;;;13.30;99.90;;;;;;5015051;28;20443;-86
2021/10/02 05:50:22;;;;;;;0.77;0.67;;;13.30;99.90;;;;;;5014990;28;20498;-86
2021/10/02 05:52:49;;;;;;;0.50;0.50;;;13.30;99.90;;;;;;5014975;28;20455;-86
2021/10/02 05:55:15;;;;;;;1.53;0.73;;;13.30;99.90;;;;;;5014874;28;20813;-86
2021/10/02 05:57:42;;;;;;;1.07;0.50;;;13.30;99.90;;;;;;5014809;28;20447;-86
2021/10/02 06:00:12;;;;;;;0.50;0.50;;;13.40;99.90;;;;;;5014652;28;20979;-86
2021/10/02 06:02:38;;;;;;;0.40;0.40;;;13.40;99.90;;;;;;5014685;28;20454;-86
2021/10/02 06:05:06;;;;;;;3.40;0.70;;;13.40;99.90;;;;;;5014648;28;20458;-87
2021/10/02 06:07:32;;;;;;;1.63;0.60;;;13.40;99.90;;;;;;5014720;28;20432;-85
2021/10/02 06:09:59;;;;;;;0.80;0.70;;;13.50;99.90;;;;;;5014622;28;20854;-86
2021/10/02 06:12:26;;;;;;;1.40;0.70;;;13.50;99.90;;;;;;5014642;28;20440;-87
2021/10/02 06:14:53;;;;;;;0.80;0.60;;;13.50;99.90;;;;;;5014549;28;20474;-86
2021/10/02 06:17:21;;;;;;;0.60;0.60;;;13.50;99.90;;;;;;5014535;28;20440;-86
2021/10/02 06:19:47;;;;;;;1.53;0.73;;;13.40;99.90;;;;;;5014329;28;21156;-86
2021/10/02 06:22:14;;;;;;;0.70;0.70;;;13.40;99.90;;;;;;5014325;28;20949;-86
2021/10/02 06:24:41;;;;;;;0.60;0.60;;;13.40;99.90;;;;;;5014032;28;20455;-84
2021/10/02 06:27:08;;;;;;;0.80;0.80;;;13.40;99.90;;;;;;5014215;28;20440;-85
2021/10/02 06:29:35;;;;;;;0.73;0.70;;;13.40;99.90;;;;;;5014339;28;20451;-86
2021/10/02 06:32:02;;;;;;;0.73;0.60;;;13.40;99.90;;;;;;5014471;28;20495;-86
2021/10/02 06:34:30;;;;;;;1.17;0.60;;;13.40;99.90;;;;;;5014138;28;20479;-86
2021/10/02 06:36:57;;;;;;;0.83;0.83;;;13.40;99.90;;;;;;5014547;28;20891;-86
2021/10/02 06:39:23;;;;;;;1.23;0.93;;;13.40;99.90;;;;;;5014357;28;20454;-86
2021/10/02 06:41:50;;;;;;;4.30;1.33;;;13.50;99.90;;;;;;5013893;28;20835;-85
2021/10/02 06:44:17;;;;;;;1.23;0.63;;;13.50;99.90;;;;;;5014241;28;20450;-86
2021/10/02 06:46:44;;;;;;;1.37;1.27;;;13.50;99.90;;;;;;5013881;28;20428;-82
2021/10/02 06:49:11;;;;;;;0.50;0.43;;;13.50;99.90;;;;;;5013654;28;20463;-83
2021/10/02 06:51:39;;;;;;;0.80;0.70;;;13.60;99.90;;;;;;5013458;28;20482;-83
2021/10/02 06:54:05;;;;;;;0.60;0.60;;;13.60;99.90;;;;;;5013771;28;20455;-83
2021/10/02 06:56:32;;;;;;;1.43;1.23;;;13.60;99.90;;;;;;5013533;28;20464;-82
2021/10/02 06:58:59;;;;;;;3.90;0.87;;;13.70;99.90;;;;;;5013469;28;20451;-82
2021/10/02 07:01:26;;;;;;;1.10;0.70;;;13.70;99.90;;;;;;5013627;28;20459;-82
2021/10/02 07:03:52;;;;;;;0.80;0.60;;;13.70;99.90;;;;;;5013487;28;20436;-82
2021/10/02 07:06:19;;;;;;;1.00;0.63;;;13.80;99.90;;;;;;5013394;28;20487;-82
2021/10/02 07:08:47;;;;;;;1.23;0.50;;;13.80;99.90;;;;;;5013676;28;20432;-82
2021/10/02 07:11:14;;;;;;;1.70;0.50;;;13.80;99.90;;;;;;5013322;28;21013;-83
2021/10/02 07:13:41;;;;;;;0.67;0.53;;;13.90;99.90;;;;;;5013630;28;20432;-82
2021/10/02 07:16:07;;;;;;;2.60;0.60;;;14.00;99.90;;;;;;5013621;28;20436;-82
2021/10/02 07:18:34;;;;;;;1.80;0.60;;;14.10;99.90;;;;;;5013540;28;20431;-82
2021/10/02 07:21:04;;;;;;;0.50;0.50;;;14.20;99.90;;;;;;5013493;28;20470;-83
2021/10/02 07:23:32;;;;;;;1.70;0.60;;;14.20;99.90;;;;;;5013271;28;20423;-82
2021/10/02 07:26:01;;;;;;;1.43;0.50;;;14.20;99.90;;;;;;5013183;28;20927;-82
2021/10/02 07:28:28;;;;;;;1.10;0.57;;;14.20;99.90;;;;;;5013172;28;20828;-82
2021/10/02 07:30:55;;;;;;;0.83;0.83;;;14.10;99.90;;;;;;5013011;28;20483;-83
2021/10/02 07:33:22;;;;;;;0.40;0.40;;;14.10;99.90;;;;;;5013936;28;20443;-83
2021/10/02 07:35:49;;;;;;;0.50;0.50;;;14.10;99.90;;;;;;5012922;28;20464;-82
2021/10/02 07:38:15;;;;;;;1.10;0.50;;;14.10;99.90;;;;;;5013089;28;20931;-82
2021/10/02 07:40:42;;;;;;;0.40;0.40;;;14.10;99.90;;;;;;5012961;28;20983;-82
2021/10/02 07:43:15;;;;;;;1.03;0.70;;;14.10;99.90;;;;;;5013172;28;20456;-83
2021/10/02 07:45:44;;;;;;;0.60;0.43;;;14.10;99.90;;;;;;5013277;28;20432;-82
2021/10/02 07:48:15;;;;;;;0.40;0.40;;;14.20;99.90;;;;;;5013276;28;20928;-82
2021/10/02 07:50:42;;;;;;;0.80;0.60;;;14.30;99.90;;;;;;5013101;28;20483;-82
2021/10/02 07:53:09;;;;;;;1.60;0.47;;;14.40;99.90;;;;;;5013545;28;20809;-86
2021/10/02 07:55:36;;;;;;;1.23;0.70;;;14.40;99.90;;;;;;5013347;28;20447;-83
2021/10/02 07:58:03;;;;;;;1.90;0.57;;;14.50;99.90;;;;;;5013169;28;20836;-83
2021/10/02 08:00:32;;;;;;;0.77;0.50;;;14.70;99.90;;;;;;5014301;28;20463;-84
2021/10/02 08:02:59;;;;;;;1.17;0.47;;;14.80;99.90;;;;;;5017092;28;20522;-87
2021/10/02 08:05:26;;;;;;;0.90;0.40;;;14.90;99.90;;;;;;5016937;28;20455;-86
2021/10/02 08:07:53;;;;;;;0.83;0.53;;;15.00;99.90;;;;;;5017297;28;20455;-87
2021/10/02 08:10:24;;;;;;;3.70;0.73;;;15.20;99.90;;;;;;5016734;28;20471;-87
2021/10/02 08:12:51;;;;;;;0.50;0.50;;;15.30;99.90;;;;;;5016986;28;20454;-87
2021/10/02 08:15:18;;;;;;;1.80;0.70;;;15.40;99.90;;;;;;5017002;28;20451;-87
2021/10/02 08:17:48;;;;;;;0.80;0.40;;;15.50;99.90;;;;;;5016614;28;20455;-82
2021/10/02 08:20:18;;;;;;;0.90;0.60;;;15.70;99.90;;;;;;5017445;28;20463;-82
2021/10/02 08:22:46;;;;;;;0.70;0.50;;;15.90;99.90;;;;;;5016380;28;20459;-82
2021/10/02 08:25:15;;;;;;;0.97;0.50;;;16.00;99.90;;;;;;5016400;28;20448;-83
2021/10/02 08:27:42;;;;;;;0.47;0.47;;;16.20;99.90;;;;;;5016059;28;20467;-82
2021/10/02 08:30:11;;;;;;;0.83;0.50;;;16.40;99.90;;;;;;5016282;28;20479;-82
2021/10/02 08:32:38;;;;;;;0.50;0.40;;;16.50;99.90;;;;;;5015969;28;20443;-84
2021/10/02 08:35:08;;;;;;;0.90;0.40;;;16.70;99.90;;;;;;5015992;28;20472;-83
2021/10/02 08:37:35;;;;;;;0.40;0.30;;;16.80;99.90;;;;;;5015867;28;20957;-83
2021/10/02 08:40:02;;;;;;;0.73;0.40;;;17.00;99.90;;;;;;5016081;28;20470;-83
2021/10/02 08:42:29;;;;;;;0.40;0.30;;;17.20;99.90;;;;;;5015765;28;20957;-82
2021/10/02 08:44:56;;;;;;;0.40;0.40;;;17.40;99.90;;;;;;5016000;28;20451;-83
2021/10/02 08:47:24;;;;;;;0.80;0.57;;;17.60;99.90;;;;;;5015857;28;20419;-83
2021/10/02 08:49:52;;;;;;;0.80;0.50;;;17.80;99.90;;;;;;5015589;28;20478;-82
2021/10/02 08:52:22;;;;;;;0.60;0.40;;;18.10;99.90;;;;;;5015531;28;20475;-83
2021/10/02 08:54:50;;;;;;;0.40;0.40;;;18.30;99.90;;;;;;5015895;28;20880;-83
2021/10/02 08:57:21;;;;;;;1.27;0.50;;;18.60;99.90;;;;;;5015798;28;20447;-83
2021/10/02 08:59:50;;;;;;;0.50;0.50;;;18.90;99.90;;;;;;5015232;28;20936;-82
2021/10/02 09:02:18;;;;;;;2.00;0.40;;;19.30;99.90;;;;;;5015746;28;20451;-82
2021/10/02 09:04:46;;;;;;;0.87;0.57;;;19.60;99.90;;;;;;5015370;28;20770;-83
2021/10/02 09:07:15;;;;;;;0.60;0.60;;;20.00;99.90;;;;;;5015437;28;20431;-82
2021/10/02 09:09:44;;;;;;;0.60;0.60;;;20.30;99.90;;;;;;5015626;28;20439;-83
2021/10/02 09:12:12;;;;;;;0.40;0.40;;;20.50;99.90;;;;;;5014964;28;20503;-82
2021/10/02 09:14:39;;;;;;;0.87;0.43;;;20.70;99.90;;;;;;5015555;28;20438;-83
2021/10/02 09:17:05;;;;;;;0.50;0.50;;;20.90;99.90;;;;;;5015980;28;20448;-83
2021/10/02 09:19:32;;;;;;;0.50;0.47;;;20.90;99.90;;;;;;5015366;28;20440;-83
2021/10/02 09:22:03;;;;;;;1.20;0.63;;;21.30;99.90;;;;;;5015451;28;20419;-84
2021/10/02 09:24:32;;;;;;;1.90;0.70;;;21.80;99.80;;;;;;5015380;28;20475;-83
2021/10/02 09:27:01;;;;;;;0.60;0.53;;;22.40;97.90;;;;;;5015246;28;20432;-83
2021/10/02 09:29:37;;;;;;;0.70;0.70;;;22.60;97.20;;;;;;5015251;28;20436;-83
2021/10/02 09:32:05;;;;;;;0.60;0.60;;;22.50;96.00;;;;;;5015148;28;20815;-83
2021/10/02 09:34:42;;;;;;;0.50;0.50;;;22.50;96.70;;;;;;5014804;28;20829;-83
2021/10/02 09:37:16;;;;;;;0.60;0.60;;;22.00;96.70;;;;;;5014784;28;20188;-83
2021/10/02 09:39:44;;;;;;;0.50;0.50;;;22.00;96.00;;;;;;5015142;28;20187;-83
2021/10/02 09:42:22;;;;;;;0.87;0.80;;;21.80;97.00;;;;;;5015195;28;20436;-83
2021/10/02 09:44:49;;;;;;;0.70;0.70;;;21.80;96.60;;;;;;5014999;28;20219;-82
2021/10/02 09:47:18;;;;;;;0.60;0.60;;;21.80;96.00;;;;;;5014892;28;20431;-83
2021/10/02 09:49:46;;;;;;;1.27;0.83;;;21.90;97.10;;;;;;5014691;28;20416;-83
2021/10/02 09:52:31;;;;;;;0.97;0.60;;;22.20;96.80;;;;;;5014566;28;20467;-83
2021/10/02 09:54:58;;;;;;;0.60;0.60;;;22.40;95.80;;;;;;5014873;28;20442;-83
2021/10/02 09:57:26;;;;;;;1.23;0.90;;;22.70;94.80;;;;;;5014370;28;20431;-83
2021/10/02 10:00:08;;;;;;;1.40;0.67;;;22.90;94.40;;;;;;5014301;28;20991;-82
2021/10/02 10:02:38;;;;;;;0.73;0.60;;;23.10;93.70;;;;;;5014699;28;20439;-83
2021/10/02 10:05:05;;;;;;;1.57;0.70;;;23.30;93.10;;;;;;5014452;28;20899;-83
2021/10/02 10:07:32;;;;;;;0.80;0.60;;;23.20;93.50;;;;;;5014320;28;20409;-83
2021/10/02 10:10:01;;;;;;;1.00;0.80;;;23.20;92.70;;;;;;5014173;28;20235;-82
2021/10/02 10:12:29;;;;;;;1.03;0.90;;;22.90;92.90;;;;;;5014139;28;20208;-83
2021/10/02 10:14:56;;;;;;;0.83;0.50;;;22.70;93.10;;;;;;5014148;28;20651;-83
2021/10/02 10:17:24;;;;;;;1.00;0.63;;;22.90;93.90;;;;;;5014393;28;20447;-82
2021/10/02 10:20:01;;;;;;;0.67;0.67;;;23.10;93.20;;;;;;5014030;28;20691;-82
2021/10/02 10:22:28;;;;;;;0.68;0.68;;;23.40;92.60;;;;;;5014505;28;20200;-83
2021/10/02 10:24:57;;;;;;;0.85;0.85;;;24.00;92.20;;;;;;5013647;28;20192;-83
2021/10/02 10:27:33;;;;;;;0.73;0.70;;;24.60;91.20;;;;;;5014216;28;20192;-82
2021/10/02 10:30:10;;;;;;;0.60;0.60;;;25.20;91.10;;;;;;5014159;28;20232;-83
2021/10/02 10:32:38;;;;;;;1.25;1.10;;;26.10;86.50;;;;;;5013878;28;20204;-83
2021/10/02 10:35:07;;;;;;;1.77;0.80;;;27.10;84.50;;;;;;5013660;28;20232;-83
2021/10/02 10:37:34;;;;;;;0.77;0.77;;;28.20;79.00;;;;;;5013795;28;20189;-83
2021/10/02 10:40:01;;;;;;;0.75;0.52;;;28.80;73.30;;;;;;5013985;28;20228;-83
2021/10/02 10:42:29;;;;;;;0.50;0.50;;;29.30;69.10;;;;;;5014005;28;20204;-82
2021/10/02 10:44:58;;;;;;;0.55;0.55;;;29.80;66.70;;;;;;5013969;28;20197;-83
2021/10/02 10:47:26;;;;;;;0.52;0.52;;;29.70;64.10;;;;;;5013956;28;20218;-83
2021/10/02 10:49:53;;;;;;;0.60;0.60;;;29.40;64.20;;;;;;5013748;28;20295;-83
2021/10/02 10:52:20;;;;;;;0.77;0.77;;;28.70;65.10;;;;;;5013848;28;20239;-82
2021/10/02 10:54:51;;;;;;;1.23;0.70;;;27.90;66.10;;;;;;5013833;28;20192;-82
2021/10/02 10:57:38;;;;;;;0.75;0.75;;;26.80;68.70;;;;;;5013956;28;20186;-83
2021/10/02 11:00:13;;;;;;;0.50;0.50;;;26.00;72.50;;;;;;5013382;28;20734;-83
2021/10/02 11:02:54;;;;;;;0.60;0.55;;;25.10;73.70;;;;;;5013781;28;20203;-83
2021/10/02 11:05:49;;;;;;;0.68;0.65;;;24.40;74.60;;;;;;5013706;28;20199;-82
2021/10/02 11:08:20;;;;;;;0.93;0.70;;;23.70;77.10;;;;;;5013435;28;20207;-83
2021/10/02 11:10:59;;;;;;;1.45;0.57;;;23.30;79.60;;;;;;5013228;28;20686;-83
2021/10/02 11:13:56;;;;;;;0.68;0.68;;;23.00;79.80;;;;;;5014224;28;20212;-82
2021/10/02 11:16:36;;;;;;;1.35;0.88;;;22.70;81.50;;;;;;5013347;28;20644;-84
2021/10/02 11:19:25;;;;;;;0.80;0.80;;;22.40;82.50;;;;;;5013904;28;20192;-82
2021/10/02 11:22:05;;;;;;;0.90;0.60;;;22.30;82.20;;;;;;5013478;28;20235;-82
2021/10/02 11:24:38;;;;;;;0.93;0.50;;;22.10;83.10;;;;;;5013580;28;20188;-83
2021/10/02 11:27:05;;;;;;;1.00;0.53;;;22.00;83.90;;;;;;5013246;28;20435;-82
2021/10/02 11:29:34;;;;;;;0.57;0.53;;;22.00;84.00;;;;;;5013471;28;20439;-82
2021/10/02 11:32:22;;;;;;;0.80;0.57;;;22.00;85.70;;;;;;5013577;28;20475;-82
2021/10/02 11:35:25;;;;;;;0.53;0.53;;;22.10;85.50;;;;;;5014253;28;20478;-87
2021/10/02 11:37:55;;;;;;;0.80;0.50;;;22.00;83.00;;;;;;5017432;28;20450;-82
2021/10/02 11:40:47;;;;;;;0.90;0.60;;;21.80;83.90;;;;;;5017269;28;20478;-82
2021/10/02 11:43:36;;;;;;;0.90;0.70;;;21.80;85.20;;;;;;5017294;28;20887;-83
2021/10/02 11:46:08;;;;;;;0.83;0.70;;;21.80;85.50;;;;;;5017236;28;20427;-82
2021/10/02 11:48:42;;;;;;;1.27;0.80;;;21.60;86.50;;;;;;5017037;28;20454;-83
2021/10/02 11:51:17;;;;;;;1.50;1.20;;;21.60;88.10;;;;;;5017070;28;20462;-82
2021/10/02 11:53:46;;;;;;;0.90;0.57;;;21.50;85.40;;;;;;5017105;28;20438;-82
2021/10/02 11:56:13;;;;;;;0.50;0.50;;;21.50;87.20;;;;;;5016622;28;20461;-83
2021/10/02 11:58:42;;;;;;;0.70;0.70;;;21.40;84.20;;;;;;5017149;28;20470;-83
2021/10/02 12:01:16;;;;;;;0.57;0.57;;;21.30;86.30;;;;;;5016863;28;20558;-82
2021/10/02 12:03:44;;;;;;;1.00;0.60;;;21.20;88.00;;;;;;5016920;28;20820;-83
2021/10/02 12:06:11;;;;;;;0.67;0.63;;;21.20;88.40;;;;;;5016561;28;20442;-82
2021/10/02 12:08:39;;;;;;;0.90;0.80;;;21.20;88.40;;;;;;5016591;28;20462;-84
2021/10/02 12:11:08;;;;;;;0.60;0.60;;;21.20;88.50;;;;;;5016526;28;20487;-83
2021/10/02 12:13:37;;;;;;;1.13;0.63;;;21.10;88.70;;;;;;5016404;28;20470;-82
2021/10/02 12:16:06;;;;;;;0.50;0.50;;;21.00;88.70;;;;;;5016664;28;20489;-83
2021/10/02 12:18:56;;;;;;;0.93;0.80;;;20.90;89.30;;;;;;5016617;28;20445;-83
2021/10/02 12:21:34;;;;;;;0.50;0.50;;;20.90;90.00;;;;;;5017548;28;20475;-84
2021/10/02 12:24:04;;;;;;;0.60;0.60;;;20.80;89.20;;;;;;5016565;28;20427;-82
2021/10/02 12:26:31;;;;;;;1.73;0.60;;;20.90;89.90;;;;;;5016363;28;20489;-83
2021/10/02 12:29:03;;;;;;;0.77;0.63;;;20.90;89.60;;;;;;5016407;28;20451;-83
2021/10/02 12:31:57;;;;;;;0.90;0.60;;;20.80;90.50;;;;;;5016469;28;20463;-83
2021/10/02 12:34:28;;;;;;;0.70;0.63;;;20.80;90.00;;;;;;5016075;28;20475;-83
2021/10/02 12:36:57;;;;;;;0.60;0.60;;;20.70;90.60;;;;;;5016321;28;20431;-82
2021/10/02 12:39:31;;;;;;;1.17;0.60;;;20.70;91.10;;;;;;5016056;28;20457;-82
2021/10/02 12:41:58;;;;;;;0.70;0.70;;;20.70;91.30;;;;;;5015998;28;20431;-82
2021/10/02 12:44:27;;;;;;;1.00;0.80;;;20.70;91.70;;;;;;5015916;28;20440;-82
2021/10/02 12:46:56;;;;;;;0.90;0.60;;;20.70;91.60;;;;;;5015231;28;20780;-84
2021/10/02 12:49:26;;;;;;;1.00;0.70;;;20.90;90.70;;;;;;5016112;28;20439;-84
2021/10/02 12:51:55;;;;;;;0.50;0.50;;;21.00;90.80;;;;;;5016107;28;20490;-82
2021/10/02 12:54:25;;;;;;;6.10;0.60;;;21.00;90.50;;;;;;5015629;28;20947;-83
2021/10/02 12:57:13;;;;;;;0.83;0.57;;;21.10;90.60;;;;;;5015945;28;20956;-83
2021/10/02 12:59:46;;;;;;;0.70;0.60;;;21.00;90.10;;;;;;5015474;28;20911;-84
2021/10/02 13:02:14;;;;;;;1.80;0.90;;;21.00;90.40;;;;;;5016098;28;20431;-83
2021/10/02 13:04:43;;;;;;;0.67;0.67;;;20.90;91.10;;;;;;5015722;28;20443;-83
2021/10/02 13:07:10;;;;;;;0.60;0.60;;;21.00;91.20;;;;;;5015668;28;20977;-83
2021/10/02 13:09:56;;;;;;;0.77;0.77;;;20.90;91.90;;;;;;5015253;28;20443;-82
2021/10/02 13:12:27;;;;;;;1.33;0.73;;;20.90;91.30;;;;;;5015501;28;20482;-83
2021/10/02 13:14:55;;;;;;;3.33;1.00;;;20.80;91.00;;;;;;5015218;28;20427;-82
2021/10/02 13:17:23;;;;;;;1.00;0.90;;;20.80;91.70;;;;;;5015507;28;20455;-83
2021/10/02 13:20:16;;;;;;;1.13;0.93;;;20.80;91.20;;;;;;5015338;28;20471;-82
2021/10/02 13:22:46;;;;;;;0.50;0.50;;;20.70;91.30;;;;;;5015606;28;20531;-83
2021/10/02 13:25:19;;;;;;;2.20;0.50;;;20.70;91.40;;;;;;5015347;28;20434;-83
2021/10/02 13:27:48;;;;;;;0.70;0.70;;;20.60;92.20;;;;;;5015274;28;20440;-83
2021/10/02 13:30:17;;;;;;;0.40;0.40;;;20.60;92.70;;;;;;5015149;28;20478;-83
2021/10/02 13:33:02;;;;;;;0.80;0.60;;;20.60;92.60;;;;;;5015175;28;20475;-83
2021/10/02 13:35:33;;;;;;;0.67;0.67;;;20.50;92.70;;;;;;5014707;28;20479;-82
2021/10/02 13:38:00;;;;;;;1.23;0.60;;;20.40;93.20;;;;;;5014858;28;20416;-82
2021/10/02 13:40:30;;;;;;;0.60;0.50;;;20.40;93.00;;;;;;5015511;28;20462;-82
2021/10/02 13:42:58;;;;;;;0.70;0.50;;;20.40;92.70;;;;;;5015060;28;20444;-83
2021/10/02 13:45:32;;;;;;;3.03;0.70;;;20.50;92.30;;;;;;5014580;28;20942;-83
2021/10/02 13:48:05;;;;;;;0.83;0.80;;;20.50;92.20;;;;;;5014979;28;20431;-82
2021/10/02 13:50:34;;;;;;;2.20;0.70;;;20.40;92.60;;;;;;5014990;28;20452;-83
2021/10/02 13:53:01;;;;;;;0.90;0.80;;;20.40;92.30;;;;;;5014698;28;20492;-82